Time;durP1;ratioP1;P1;durP2;ratioP2;P2;SDS_P1;SDS_P2;PMS_P1;PMS_P2;Temp;Humidity;BMP_temperature;BMP_pressure;BME280_temperature;BME280_humidity;BME280_pressure;Samples;Min_cycle;Max_cycle;Signal;HPM_P1;HPM_P2
2021/12/28 00:01:07;;;;;;;5.97;4.05;;;7.70;40.30;;;;;;5057814;28;20005;-88
2021/12/28 00:03:35;;;;;;;4.68;3.00;;;7.70;40.30;;;;;;5039639;28;20076;-89
2021/12/28 00:06:02;;;;;;;5.93;3.50;;;7.70;40.30;;;;;;5055789;28;20033;-88
2021/12/28 00:08:28;;;;;;;4.95;3.20;;;7.70;40.30;;;;;;5026278;28;20091;-90
2021/12/28 00:10:55;;;;;;;6.32;3.85;;;7.70;40.30;;;;;;5018922;28;20124;-87
2021/12/28 00:13:21;;;;;;;4.90;3.40;;;7.70;40.30;;;;;;5037428;28;20026;-88
2021/12/28 00:16:12;;;;;;;4.32;3.30;;;7.70;40.40;;;;;;5024516;28;20030;-88
2021/12/28 00:18:37;;;;;;;4.68;3.15;;;7.70;40.40;;;;;;5039624;28;20034;-87
2021/12/28 00:21:04;;;;;;;4.32;3.33;;;7.70;40.40;;;;;;5034749;28;20508;-88
2021/12/28 00:23:39;;;;;;;4.82;3.95;;;7.70;40.30;;;;;;5035416;28;20540;-87
2021/12/28 00:26:08;;;;;;;5.13;3.35;;;7.70;40.30;;;;;;5035668;28;21577;-88
2021/12/28 00:28:35;;;;;;;5.45;3.50;;;7.80;40.30;;;;;;5050558;28;20020;-88
2021/12/28 00:31:05;;;;;;;4.28;3.42;;;7.80;40.10;;;;;;5021920;28;20053;-88
2021/12/28 00:33:31;;;;;;;3.90;3.50;;;7.90;40.10;;;;;;5038822;28;20496;-89
2021/12/28 00:35:57;;;;;;;5.90;3.60;;;7.90;40.00;;;;;;5017550;28;20033;-89
2021/12/28 00:38:26;;;;;;;5.28;3.58;;;7.90;40.00;;;;;;5035865;28;20037;-89
2021/12/28 00:40:57;;;;;;;4.50;3.78;;;7.90;40.00;;;;;;5050654;28;20034;-87
2021/12/28 00:43:24;;;;;;;6.07;3.88;;;7.90;39.80;;;;;;5035440;28;20132;-89
2021/12/28 00:45:50;;;;;;;5.15;3.53;;;7.90;39.90;;;;;;5049978;28;20515;-87
2021/12/28 00:48:17;;;;;;;5.65;3.90;;;7.90;39.80;;;;;;5036466;28;20016;-89
2021/12/28 00:50:44;;;;;;;5.95;4.35;;;7.80;39.80;;;;;;5019482;28;20515;-91
2021/12/28 00:53:10;;;;;;;4.32;3.28;;;7.90;39.80;;;;;;5023053;28;20056;-85
2021/12/28 00:55:36;;;;;;;5.13;3.65;;;7.90;39.80;;;;;;5026581;28;20025;-88
2021/12/28 00:58:04;;;;;;;6.18;4.25;;;7.80;39.70;;;;;;5026359;28;20029;-88
2021/12/28 01:00:34;;;;;;;6.15;4.07;;;7.80;39.80;;;;;;5041316;28;20124;-89
2021/12/28 01:03:02;;;;;;;5.70;3.45;;;7.80;39.80;;;;;;5022422;28;20554;-87
2021/12/28 01:05:30;;;;;;;5.03;3.65;;;7.80;39.80;;;;;;5034652;28;20033;-86
2021/12/28 01:07:56;;;;;;;4.90;3.70;;;7.80;39.90;;;;;;5035986;28;20033;-88
2021/12/28 01:10:29;;;;;;;4.70;3.20;;;7.70;39.80;;;;;;5021838;28;20048;-88
2021/12/28 01:12:55;;;;;;;4.95;3.90;;;7.70;39.90;;;;;;5017482;28;20055;-89
2021/12/28 01:15:24;;;;;;;4.47;3.50;;;7.70;39.90;;;;;;5021587;28;20084;-89
2021/12/28 01:17:50;;;;;;;4.32;3.47;;;7.70;39.90;;;;;;5034912;28;20079;-88
2021/12/28 01:20:17;;;;;;;4.93;3.47;;;7.70;39.90;;;;;;5050306;28;20033;-89
2021/12/28 01:22:44;;;;;;;5.38;3.50;;;7.70;39.90;;;;;;5018344;28;20360;-89
2021/12/28 01:25:13;;;;;;;5.03;3.42;;;7.70;39.90;;;;;;5034086;28;20063;-89
2021/12/28 01:27:39;;;;;;;4.65;3.28;;;7.70;39.90;;;;;;5039795;28;20093;-86
2021/12/28 01:30:08;;;;;;;5.22;3.30;;;7.70;39.90;;;;;;5025405;28;20053;-91
2021/12/28 01:32:35;;;;;;;5.32;3.55;;;7.70;39.90;;;;;;5024173;28;20054;-90
2021/12/28 01:35:01;;;;;;;5.40;3.83;;;7.80;39.90;;;;;;5024283;28;20145;-92
2021/12/28 01:37:27;;;;;;;4.90;3.30;;;7.80;39.90;;;;;;5037887;28;20060;-89
2021/12/28 01:39:53;;;;;;;4.80;3.00;;;7.80;39.70;;;;;;5025137;28;20061;-88
2021/12/28 01:42:19;;;;;;;5.30;3.60;;;7.90;39.80;;;;;;5024135;28;20035;-92
2021/12/28 01:44:45;;;;;;;5.30;3.50;;;7.90;39.70;;;;;;5021034;28;20064;-94
2021/12/28 01:47:12;;;;;;;6.05;3.55;;;7.90;39.70;;;;;;5058762;28;20093;-92
2021/12/28 01:49:38;;;;;;;4.75;3.10;;;7.90;39.70;;;;;;5039616;28;20036;-87
2021/12/28 01:52:05;;;;;;;4.45;3.28;;;7.90;39.70;;;;;;5023385;28;20109;-91
2021/12/28 01:54:31;;;;;;;5.25;3.30;;;7.90;39.70;;;;;;5025833;28;20029;-88
2021/12/28 01:56:57;;;;;;;4.15;2.90;;;7.90;39.70;;;;;;5041533;28;20033;-88
2021/12/28 01:59:23;;;;;;;4.75;3.22;;;7.90;39.80;;;;;;5043378;28;20098;-89
2021/12/28 02:01:50;;;;;;;4.18;3.03;;;7.90;39.90;;;;;;5027930;28;20033;-86
2021/12/28 02:04:28;;;;;;;4.32;2.83;;;7.90;39.90;;;;;;5041930;28;20040;-86
2021/12/28 02:06:55;;;;;;;3.65;2.70;;;7.90;40.00;;;;;;5026244;28;20033;-86
2021/12/28 02:09:21;;;;;;;5.03;3.13;;;7.90;40.00;;;;;;5023380;28;20005;-87
2021/12/28 02:11:47;;;;;;;3.55;2.70;;;7.80;40.00;;;;;;5039852;28;20022;-87
2021/12/28 02:14:14;;;;;;;3.92;3.08;;;7.80;40.00;;;;;;5028737;28;20048;-87
2021/12/28 02:16:43;;;;;;;4.32;2.85;;;7.80;40.00;;;;;;5025973;28;20057;-87
2021/12/28 02:19:10;;;;;;;3.50;3.10;;;7.80;40.00;;;;;;5043761;28;20029;-87
2021/12/28 02:21:37;;;;;;;3.75;3.05;;;7.70;40.70;;;;;;5041470;28;20014;-87
2021/12/28 02:24:06;;;;;;;5.93;3.30;;;7.70;40.00;;;;;;5020528;28;20052;-86
2021/12/28 02:26:32;;;;;;;3.47;3.13;;;7.80;40.10;;;;;;5033392;28;20037;-85
2021/12/28 02:28:59;;;;;;;4.07;2.45;;;7.70;40.00;;;;;;5032013;28;20025;-86
2021/12/28 02:31:26;;;;;;;4.10;3.17;;;7.70;40.00;;;;;;5031283;28;20049;-86
2021/12/28 02:33:52;;;;;;;3.90;2.90;;;7.70;40.00;;;;;;5031433;28;20067;-86
2021/12/28 02:36:19;;;;;;;4.80;3.10;;;7.70;40.00;;;;;;5032407;28;20037;-87
2021/12/28 02:38:46;;;;;;;5.28;2.90;;;7.70;40.00;;;;;;5033971;28;20034;-87
2021/12/28 02:41:13;;;;;;;4.43;2.92;;;7.70;40.00;;;;;;5032853;28;20030;-87
2021/12/28 02:43:42;;;;;;;4.22;3.17;;;7.80;40.00;;;;;;5015432;28;20029;-86
2021/12/28 02:46:09;;;;;;;3.35;2.78;;;7.80;39.90;;;;;;5035658;28;20042;-85
2021/12/28 02:48:37;;;;;;;4.28;3.05;;;7.80;39.90;;;;;;5037310;28;20157;-87
2021/12/28 02:51:07;;;;;;;4.43;2.97;;;7.80;39.80;;;;;;5050977;28;20083;-86
2021/12/28 02:53:34;;;;;;;3.65;3.17;;;7.90;39.80;;;;;;5037705;28;20037;-85
2021/12/28 02:56:00;;;;;;;4.32;2.92;;;7.90;39.80;;;;;;5023332;28;20030;-86
2021/12/28 02:58:31;;;;;;;4.18;3.13;;;7.90;39.70;;;;;;5034614;28;20029;-84
2021/12/28 03:01:13;;;;;;;4.85;3.65;;;7.90;39.70;;;;;;5035856;28;20076;-86
2021/12/28 03:03:41;;;;;;;3.67;3.28;;;7.90;39.60;;;;;;5038404;28;20059;-87
2021/12/28 03:06:13;;;;;;;3.38;2.83;;;7.80;39.60;;;;;;5039485;28;20037;-89
2021/12/28 03:08:44;;;;;;;4.72;3.28;;;7.80;39.60;;;;;;5025049;28;20025;-90
2021/12/28 03:11:11;;;;;;;4.07;2.92;;;7.80;39.60;;;;;;5039001;28;20033;-88
2021/12/28 03:13:41;;;;;;;4.93;3.40;;;7.80;39.60;;;;;;5022277;28;20064;-90
2021/12/28 03:16:09;;;;;;;4.28;3.15;;;7.80;39.60;;;;;;5040489;28;20687;-86
2021/12/28 03:18:35;;;;;;;5.15;3.22;;;7.80;39.50;;;;;;5044306;28;20025;-89
2021/12/28 03:21:04;;;;;;;3.97;3.33;;;7.70;39.50;;;;;;5041517;28;20052;-90
2021/12/28 03:23:31;;;;;;;4.45;3.40;;;7.70;39.50;;;;;;5039066;28;20038;-89
2021/12/28 03:25:57;;;;;;;5.75;3.92;;;7.70;39.50;;;;;;5056565;28;20030;-90
2021/12/28 03:28:32;;;;;;;5.93;4.45;;;7.60;39.60;;;;;;5036195;28;20037;-81
2021/12/28 03:31:00;;;;;;;6.18;4.35;;;7.60;39.60;;;;;;5036227;28;20036;-80
2021/12/28 03:33:32;;;;;;;5.28;4.03;;;7.60;39.60;;;;;;5037335;28;20049;-81
2021/12/28 03:35:59;;;;;;;5.57;4.15;;;7.60;39.70;;;;;;5038974;28;20034;-83
2021/12/28 03:38:25;;;;;;;5.43;3.65;;;7.60;39.80;;;;;;5021674;28;20029;-85
2021/12/28 03:40:52;;;;;;;7.15;3.80;;;7.50;39.90;;;;;;5038117;28;20079;-84
2021/12/28 03:43:19;;;;;;;5.05;3.92;;;7.60;39.90;;;;;;5051992;28;20458;-84
2021/12/28 03:45:45;;;;;;;5.35;3.83;;;7.50;39.90;;;;;;5036642;28;20044;-84
2021/12/28 03:48:11;;;;;;;5.38;3.78;;;7.60;40.00;;;;;;5037033;28;20029;-84
2021/12/28 03:50:38;;;;;;;5.07;3.88;;;7.60;39.90;;;;;;5033603;28;20237;-83
2021/12/28 03:53:06;;;;;;;6.25;4.15;;;7.60;39.90;;;;;;5036387;28;20045;-84
2021/12/28 03:55:32;;;;;;;4.65;3.78;;;7.60;39.90;;;;;;5034435;28;20061;-83
2021/12/28 03:58:00;;;;;;;3.92;3.30;;;7.70;40.40;;;;;;5034571;28;20064;-81
2021/12/28 04:00:30;;;;;;;4.95;3.80;;;7.70;39.80;;;;;;5034675;28;20894;-82
2021/12/28 04:02:57;;;;;;;5.25;3.47;;;7.70;39.70;;;;;;5035074;28;20424;-82
2021/12/28 04:05:23;;;;;;;5.88;3.72;;;7.70;39.60;;;;;;5036493;28;20038;-83
2021/12/28 04:07:49;;;;;;;8.52;4.10;;;7.80;39.60;;;;;;5052185;28;20476;-82
2021/12/28 04:10:16;;;;;;;5.03;3.85;;;7.70;39.60;;;;;;5036078;28;20059;-81
2021/12/28 04:12:43;;;;;;;5.82;3.80;;;7.70;39.50;;;;;;5035662;28;20512;-79
2021/12/28 04:15:12;;;;;;;5.72;4.00;;;7.70;39.50;;;;;;5036821;28;20518;-79
2021/12/28 04:17:39;;;;;;;4.85;3.70;;;7.70;39.50;;;;;;5037545;28;20049;-79
2021/12/28 04:20:13;;;;;;;5.25;4.18;;;7.60;39.50;;;;;;5037387;28;20160;-79
2021/12/28 04:22:40;;;;;;;5.60;3.83;;;7.60;39.50;;;;;;5038193;28;20044;-78
2021/12/28 04:25:07;;;;;;;5.82;3.88;;;7.60;39.50;;;;;;5037331;28;20056;-79
2021/12/28 04:27:33;;;;;;;6.85;3.90;;;7.60;39.40;;;;;;5052776;28;20033;-79
2021/12/28 04:29:59;;;;;;;5.50;3.40;;;7.60;39.40;;;;;;5034749;28;20688;-80
2021/12/28 04:32:25;;;;;;;5.57;3.70;;;7.50;40.00;;;;;;5035379;28;20068;-78
2021/12/28 04:34:52;;;;;;;4.75;3.38;;;7.50;39.40;;;;;;5035907;28;20089;-79
2021/12/28 04:37:18;;;;;;;5.90;4.10;;;7.50;39.50;;;;;;5034141;28;20099;-79
2021/12/28 04:39:44;;;;;;;5.68;3.50;;;7.50;39.50;;;;;;5051305;28;20459;-79
2021/12/28 04:42:10;;;;;;;5.55;3.50;;;7.50;39.60;;;;;;5034989;28;20068;-80
2021/12/28 04:44:36;;;;;;;6.03;3.75;;;7.40;39.60;;;;;;5050055;28;20033;-79
2021/12/28 04:47:02;;;;;;;4.65;3.47;;;7.50;39.60;;;;;;5036075;28;20041;-85
2021/12/28 04:49:29;;;;;;;5.28;3.28;;;7.50;39.60;;;;;;5033456;28;20021;-77
2021/12/28 04:51:56;;;;;;;5.20;3.47;;;7.50;39.60;;;;;;5037134;28;20035;-78
2021/12/28 04:54:22;;;;;;;4.70;3.58;;;7.60;39.60;;;;;;5035348;28;20108;-77
2021/12/28 04:56:48;;;;;;;4.78;3.78;;;7.60;40.20;;;;;;5033597;28;20356;-77
2021/12/28 04:59:16;;;;;;;8.32;3.78;;;7.60;39.50;;;;;;5033942;28;20073;-76
2021/12/28 05:01:42;;;;;;;5.97;3.92;;;7.60;39.50;;;;;;5033827;28;20037;-77
2021/12/28 05:04:08;;;;;;;6.07;3.65;;;7.60;39.40;;;;;;5033162;28;20106;-76
2021/12/28 05:06:35;;;;;;;5.40;3.70;;;7.60;39.50;;;;;;5036040;28;20034;-77
2021/12/28 05:09:04;;;;;;;5.28;3.95;;;7.60;39.30;;;;;;5047949;28;20033;-77
2021/12/28 05:11:32;;;;;;;5.72;4.03;;;7.70;39.40;;;;;;5033528;28;20036;-77
2021/12/28 05:13:58;;;;;;;6.55;4.75;;;7.60;39.30;;;;;;5033863;28;20037;-77
2021/12/28 05:16:28;;;;;;;7.72;3.95;;;7.60;39.40;;;;;;5033662;28;20464;-77
2021/12/28 05:18:54;;;;;;;5.30;3.75;;;7.60;39.40;;;;;;5048919;28;20076;-77
2021/12/28 05:21:20;;;;;;;5.65;3.85;;;7.60;39.50;;;;;;5033832;28;20127;-77
2021/12/28 05:23:46;;;;;;;6.00;4.10;;;7.60;39.50;;;;;;5035496;28;20064;-79
2021/12/28 05:26:12;;;;;;;6.70;4.28;;;7.60;39.60;;;;;;5038861;28;20540;-78
2021/12/28 05:28:38;;;;;;;5.85;4.60;;;7.50;39.60;;;;;;5037087;28;20068;-78
2021/12/28 05:31:04;;;;;;;5.68;3.80;;;7.50;39.70;;;;;;5038403;28;20029;-79
2021/12/28 05:33:30;;;;;;;6.63;3.83;;;7.50;39.70;;;;;;5042052;28;20542;-79
2021/12/28 05:35:56;;;;;;;5.13;3.90;;;7.50;39.70;;;;;;5040390;28;20455;-78
2021/12/28 05:38:22;;;;;;;7.85;4.20;;;7.50;39.70;;;;;;5043308;28;20048;-80
2021/12/28 05:40:48;;;;;;;6.50;4.35;;;7.50;39.80;;;;;;5042421;28;20415;-79
2021/12/28 05:43:14;;;;;;;7.10;4.40;;;7.50;39.90;;;;;;5035241;28;20034;-78
2021/12/28 05:45:41;;;;;;;6.95;4.22;;;7.50;39.90;;;;;;5040445;28;20038;-82
2021/12/28 05:48:07;;;;;;;5.80;4.30;;;7.50;39.90;;;;;;5056658;28;20056;-80
2021/12/28 05:50:33;;;;;;;5.65;4.50;;;7.50;39.90;;;;;;5031260;28;20026;-81
2021/12/28 05:52:59;;;;;;;5.88;4.03;;;7.50;39.90;;;;;;5031727;28;20086;-80
2021/12/28 05:55:25;;;;;;;5.30;3.83;;;7.50;39.80;;;;;;5032598;28;20065;-80
2021/12/28 05:57:51;;;;;;;7.00;4.50;;;7.60;39.80;;;;;;5033263;28;20049;-81
2021/12/28 06:00:17;;;;;;;5.70;3.75;;;7.60;39.70;;;;;;5048741;28;20033;-80
2021/12/28 06:02:45;;;;;;;7.95;4.65;;;7.60;39.90;;;;;;5031724;28;20033;-80
2021/12/28 06:05:11;;;;;;;8.93;5.60;;;7.50;41.90;;;;;;5034634;28;20048;-79
2021/12/28 06:07:37;;;;;;;9.85;5.40;;;7.50;44.70;;;;;;5033873;28;20033;-80
2021/12/28 06:10:05;;;;;;;9.40;5.65;;;7.50;46.80;;;;;;5033231;28;20036;-80
2021/12/28 06:12:31;;;;;;;9.57;5.97;;;7.50;48.20;;;;;;5034094;28;20022;-80
2021/12/28 06:14:57;;;;;;;10.93;5.95;;;7.50;48.90;;;;;;5032347;28;20043;-80
2021/12/28 06:17:23;;;;;;;8.02;5.35;;;7.60;49.60;;;;;;5031517;28;20045;-79
2021/12/28 06:19:49;;;;;;;10.25;5.30;;;7.60;49.80;;;;;;5033966;28;20037;-80
2021/12/28 06:22:15;;;;;;;9.98;5.32;;;7.70;49.90;;;;;;5032075;28;20089;-79
2021/12/28 06:24:41;;;;;;;7.93;4.75;;;7.90;49.70;;;;;;5032488;28;20048;-79
2021/12/28 06:27:07;;;;;;;6.53;4.32;;;8.00;49.70;;;;;;5032115;28;20034;-80
2021/12/28 06:29:33;;;;;;;10.00;4.90;;;8.10;49.40;;;;;;5033073;28;20040;-81
2021/12/28 06:31:59;;;;;;;8.20;4.75;;;8.10;49.40;;;;;;5049622;28;20148;-83
2021/12/28 06:34:25;;;;;;;11.65;4.60;;;8.20;49.40;;;;;;5032747;28;20034;-83
2021/12/28 06:36:51;;;;;;;8.18;4.40;;;8.20;49.10;;;;;;5031144;28;20067;-80
2021/12/28 06:39:17;;;;;;;7.47;3.97;;;8.30;49.20;;;;;;5032234;28;20120;-78
2021/12/28 06:41:43;;;;;;;7.68;3.90;;;8.30;49.20;;;;;;5030819;28;20423;-79
2021/12/28 06:44:10;;;;;;;6.72;4.13;;;8.30;49.60;;;;;;5030916;28;20048;-80
2021/12/28 06:46:37;;;;;;;7.03;4.07;;;8.30;50.00;;;;;;5031644;28;20033;-79
2021/12/28 06:49:04;;;;;;;6.53;4.40;;;8.30;50.40;;;;;;5031743;28;20037;-79
2021/12/28 06:51:30;;;;;;;9.15;4.47;;;8.30;50.70;;;;;;5047833;28;20408;-79
2021/12/28 06:53:56;;;;;;;7.65;4.15;;;8.30;50.90;;;;;;5043312;28;20029;-77
2021/12/28 06:56:22;;;;;;;7.80;3.75;;;8.40;52.60;;;;;;5028567;28;21908;-76
2021/12/28 06:58:48;;;;;;;7.18;3.80;;;8.50;52.50;;;;;;5029727;28;20044;-77
2021/12/28 07:01:15;;;;;;;6.72;4.20;;;8.60;51.70;;;;;;5043466;28;20042;-76
2021/12/28 07:03:41;;;;;;;6.97;3.90;;;8.70;50.80;;;;;;5028896;28;20045;-78
2021/12/28 07:06:07;;;;;;;6.18;3.85;;;8.80;50.30;;;;;;5027542;28;20199;-76
2021/12/28 07:08:34;;;;;;;7.10;3.80;;;8.80;50.30;;;;;;5027414;28;20030;-74
2021/12/28 07:11:00;;;;;;;5.88;3.63;;;8.70;50.30;;;;;;5027421;28;20060;-76
2021/12/28 07:13:26;;;;;;;6.53;3.80;;;8.80;50.20;;;;;;5027921;28;20026;-75
2021/12/28 07:15:52;;;;;;;4.85;3.47;;;8.80;50.70;;;;;;5029885;28;20113;-76
2021/12/28 07:18:19;;;;;;;6.07;3.90;;;8.80;50.00;;;;;;5028612;28;20049;-76
2021/12/28 07:20:45;;;;;;;5.95;4.13;;;8.90;50.00;;;;;;5026341;28;20052;-76
2021/12/28 07:23:11;;;;;;;5.75;3.63;;;8.80;49.90;;;;;;5029171;28;20082;-75
2021/12/28 07:25:37;;;;;;;5.95;4.10;;;8.90;49.80;;;;;;5029462;28;20470;-75
2021/12/28 07:28:03;;;;;;;6.30;3.58;;;8.90;49.80;;;;;;5029830;28;20732;-75
2021/12/28 07:30:30;;;;;;;5.57;3.72;;;8.90;49.40;;;;;;5027567;28;20038;-76
2021/12/28 07:32:56;;;;;;;5.90;4.15;;;9.00;49.30;;;;;;5032000;28;20527;-76
2021/12/28 07:35:22;;;;;;;6.32;4.25;;;9.00;49.20;;;;;;5030468;28;20576;-76
2021/12/28 07:37:48;;;;;;;6.63;4.35;;;9.00;49.40;;;;;;5030964;28;20075;-76
2021/12/28 07:40:14;;;;;;;5.43;3.70;;;8.90;49.30;;;;;;5031425;28;20091;-76
2021/12/28 07:42:41;;;;;;;7.45;4.00;;;9.00;49.30;;;;;;5031534;28;20565;-76
2021/12/28 07:45:09;;;;;;;5.78;4.20;;;9.00;49.30;;;;;;5032550;28;20041;-76
2021/12/28 07:47:36;;;;;;;7.60;4.07;;;9.10;49.30;;;;;;5030630;28;20037;-75
2021/12/28 07:50:03;;;;;;;6.80;4.05;;;9.10;48.70;;;;;;5030253;28;20025;-78
2021/12/28 07:52:29;;;;;;;8.50;3.60;;;9.20;48.60;;;;;;5030687;28;20512;-77
2021/12/28 07:54:55;;;;;;;5.20;3.83;;;9.20;48.60;;;;;;5030992;28;20034;-77
2021/12/28 07:57:21;;;;;;;6.47;4.18;;;9.20;48.60;;;;;;5029824;28;20063;-77
2021/12/28 07:59:47;;;;;;;6.38;3.67;;;9.20;48.60;;;;;;5028887;28;20033;-77
2021/12/28 08:02:13;;;;;;;5.82;3.80;;;9.30;48.60;;;;;;5030117;28;20568;-77
2021/12/28 08:04:39;;;;;;;5.63;3.65;;;9.30;49.20;;;;;;5047444;28;20040;-77
2021/12/28 08:07:04;;;;;;;5.03;3.88;;;9.30;48.70;;;;;;5031539;28;20026;-77
2021/12/28 08:09:30;;;;;;;6.00;3.92;;;9.30;48.70;;;;;;5031713;28;20419;-76
2021/12/28 08:12:00;;;;;;;5.32;3.42;;;9.30;48.80;;;;;;5029801;28;20037;-75
2021/12/28 08:14:26;;;;;;;5.90;3.50;;;9.30;48.80;;;;;;5030202;28;20026;-76
2021/12/28 08:16:51;;;;;;;4.53;3.42;;;9.30;48.80;;;;;;5044661;28;20045;-77
2021/12/28 08:19:17;;;;;;;5.22;3.47;;;9.30;48.80;;;;;;5030854;28;20034;-76
2021/12/28 08:21:44;;;;;;;4.88;3.20;;;9.30;48.90;;;;;;5029053;28;20045;-77
2021/12/28 08:24:10;;;;;;;6.32;3.42;;;9.30;48.90;;;;;;5029203;28;20033;-76
2021/12/28 08:26:36;;;;;;;6.15;3.30;;;9.30;49.00;;;;;;5029021;28;20056;-77
2021/12/28 08:29:02;;;;;;;3.67;2.88;;;9.30;49.10;;;;;;5031933;28;20048;-78
2021/12/28 08:31:28;;;;;;;4.45;3.25;;;9.30;49.00;;;;;;5029660;28;20042;-77
2021/12/28 08:33:55;;;;;;;4.72;3.45;;;9.30;49.00;;;;;;5031253;28;20037;-76
2021/12/28 08:36:21;;;;;;;5.60;3.45;;;9.40;49.10;;;;;;5031012;28;20037;-77
2021/12/28 08:38:47;;;;;;;4.78;3.42;;;9.40;49.10;;;;;;5028782;28;20063;-77
2021/12/28 08:41:13;;;;;;;5.40;3.35;;;9.40;49.10;;;;;;5028959;28;20034;-78
2021/12/28 08:43:39;;;;;;;5.30;3.15;;;9.40;49.60;;;;;;5029438;28;20044;-77
2021/12/28 08:46:05;;;;;;;4.25;3.20;;;9.40;49.10;;;;;;5029055;28;20485;-77
2021/12/28 08:48:31;;;;;;;3.97;2.88;;;9.40;49.10;;;;;;5045117;28;20503;-76
2021/12/28 08:50:57;;;;;;;5.00;3.40;;;9.40;49.20;;;;;;5030317;28;20033;-76
2021/12/28 08:53:23;;;;;;;5.38;3.28;;;9.40;49.20;;;;;;5045277;28;20033;-76
2021/12/28 08:55:49;;;;;;;4.50;3.20;;;9.40;49.20;;;;;;5030178;28;20097;-76
2021/12/28 08:58:15;;;;;;;5.40;3.22;;;9.40;49.20;;;;;;5032351;28;20090;-77
2021/12/28 09:00:41;;;;;;;5.47;3.28;;;9.40;49.20;;;;;;5031691;28;20033;-76
2021/12/28 09:03:08;;;;;;;4.72;3.25;;;9.40;49.20;;;;;;5028536;28;20043;-76
2021/12/28 09:05:37;;;;;;;5.35;3.08;;;9.50;49.20;;;;;;5028364;28;20046;-76
2021/12/28 09:08:08;;;;;;;4.25;3.05;;;9.50;49.30;;;;;;5043369;28;20071;-77
2021/12/28 09:10:34;;;;;;;5.05;3.08;;;9.40;49.30;;;;;;5031711;28;20042;-76
2021/12/28 09:13:01;;;;;;;4.45;2.83;;;9.50;49.40;;;;;;5030949;28;20041;-76
2021/12/28 09:15:27;;;;;;;5.50;3.15;;;9.50;49.40;;;;;;5046159;28;20037;-76
2021/12/28 09:17:53;;;;;;;5.97;3.53;;;9.50;49.40;;;;;;5030448;28;20038;-76
2021/12/28 09:20:22;;;;;;;7.07;3.60;;;9.50;49.40;;;;;;5031047;28;20040;-76
2021/12/28 09:22:51;;;;;;;6.90;3.90;;;9.50;49.40;;;;;;5046898;28;20099;-76
2021/12/28 09:25:18;;;;;;;4.85;3.38;;;9.50;49.50;;;;;;5030334;28;20525;-76
2021/12/28 09:27:45;;;;;;;6.10;4.07;;;9.50;49.50;;;;;;5046403;28;20041;-77
2021/12/28 09:30:12;;;;;;;5.70;3.70;;;9.50;49.50;;;;;;5031106;28;20029;-76
2021/12/28 09:32:39;;;;;;;5.55;3.88;;;9.50;49.50;;;;;;5028953;28;20448;-76
2021/12/28 09:35:06;;;;;;;5.25;3.45;;;9.50;49.50;;;;;;5028527;28;20034;-76
2021/12/28 09:37:33;;;;;;;4.63;3.50;;;9.50;49.50;;;;;;5014187;28;20049;-76
2021/12/28 09:40:00;;;;;;;4.93;3.10;;;9.50;49.50;;;;;;5028970;28;20037;-77
2021/12/28 09:42:27;;;;;;;6.30;3.67;;;9.50;49.60;;;;;;5029464;28;20041;-77
2021/12/28 09:44:53;;;;;;;5.97;3.40;;;9.50;49.50;;;;;;5028438;28;20032;-77
2021/12/28 09:47:19;;;;;;;5.35;3.50;;;9.50;49.60;;;;;;5041565;28;20025;-76
2021/12/28 09:49:47;;;;;;;3.67;2.90;;;9.50;49.70;;;;;;5044745;28;20040;-76
2021/12/28 09:52:14;;;;;;;5.22;3.50;;;9.50;49.70;;;;;;5043311;28;20037;-76
2021/12/28 09:54:41;;;;;;;4.57;3.03;;;9.50;49.70;;;;;;5027476;28;20033;-77
2021/12/28 09:57:07;;;;;;;5.28;3.38;;;9.50;50.30;;;;;;5024978;28;20059;-78
2021/12/28 09:59:36;;;;;;;7.20;3.80;;;9.50;49.80;;;;;;5029725;28;20042;-76
2021/12/28 10:02:09;;;;;;;4.82;3.80;;;9.50;49.90;;;;;;5044541;28;20041;-78
2021/12/28 10:04:35;;;;;;;4.72;3.47;;;9.60;50.00;;;;;;5040844;28;20122;-77
2021/12/28 10:07:23;;;;;;;6.03;4.00;;;9.60;50.00;;;;;;5024050;28;20132;-76
2021/12/28 10:09:50;;;;;;;4.75;3.55;;;9.50;50.10;;;;;;5024671;28;20029;-77
2021/12/28 10:12:39;;;;;;;6.03;3.92;;;9.60;50.30;;;;;;5026783;28;20534;-78
2021/12/28 10:15:11;;;;;;;5.55;3.45;;;9.60;50.50;;;;;;5027461;28;20535;-79
2021/12/28 10:17:40;;;;;;;5.72;3.65;;;9.60;50.60;;;;;;5043737;28;20621;-77
2021/12/28 10:20:19;;;;;;;5.57;3.45;;;9.60;50.90;;;;;;5026303;28;20520;-79
2021/12/28 10:22:53;;;;;;;5.57;3.60;;;9.60;51.20;;;;;;5026265;28;20045;-79
2021/12/28 10:25:24;;;;;;;7.70;3.70;;;9.60;51.30;;;;;;5027324;28;20045;-77
2021/12/28 10:27:57;;;;;;;7.03;3.50;;;9.60;51.40;;;;;;5010410;28;20034;-76
2021/12/28 10:30:33;;;;;;;6.50;4.03;;;9.60;51.50;;;;;;5027529;28;20127;-78
2021/12/28 10:33:00;;;;;;;6.93;3.25;;;9.60;51.60;;;;;;5029739;28;20064;-77
2021/12/28 10:35:35;;;;;;;8.95;3.55;;;9.60;51.60;;;;;;5043977;28;20073;-78
2021/12/28 10:38:06;;;;;;;5.85;3.58;;;9.60;51.60;;;;;;5044427;28;20040;-78
2021/12/28 10:40:45;;;;;;;6.15;3.90;;;9.60;51.60;;;;;;5028370;28;20061;-78
2021/12/28 10:43:20;;;;;;;6.95;4.35;;;9.60;51.50;;;;;;5028496;28;20033;-80
2021/12/28 10:45:49;;;;;;;7.22;4.68;;;9.60;51.40;;;;;;5041640;28;20030;-78
2021/12/28 10:48:20;;;;;;;9.05;5.40;;;9.60;51.30;;;;;;5027889;28;20061;-78
2021/12/28 10:51:02;;;;;;;9.10;6.05;;;9.60;51.30;;;;;;5011224;28;20483;-77
2021/12/28 10:53:38;;;;;;;10.80;6.13;;;9.60;51.20;;;;;;5029571;28;20108;-77
2021/12/28 10:56:06;;;;;;;12.40;6.60;;;9.60;51.20;;;;;;5028948;28;20029;-79
2021/12/28 10:58:39;;;;;;;11.95;6.40;;;9.60;51.20;;;;;;5042939;28;20026;-78
2021/12/28 11:01:26;;;;;;;10.43;5.45;;;9.60;51.00;;;;;;5029162;28;20025;-78
2021/12/28 11:03:54;;;;;;;10.45;5.28;;;9.60;51.10;;;;;;5027268;28;20037;-78
2021/12/28 11:06:32;;;;;;;9.02;6.15;;;9.60;51.20;;;;;;5036346;28;20119;-79
2021/12/28 11:09:04;;;;;;;9.35;5.03;;;9.60;51.20;;;;;;5042513;28;20029;-79
2021/12/28 11:11:31;;;;;;;7.82;5.32;;;9.60;51.30;;;;;;5042020;28;20088;-79
2021/12/28 11:14:03;;;;;;;7.90;5.18;;;9.60;51.30;;;;;;5042001;28;20038;-78
2021/12/28 11:16:31;;;;;;;7.95;4.90;;;9.60;51.30;;;;;;5018470;28;20516;-78
2021/12/28 11:19:03;;;;;;;7.72;4.80;;;9.60;51.30;;;;;;5040985;28;20037;-77
2021/12/28 11:21:36;;;;;;;7.45;4.85;;;9.60;51.40;;;;;;5042378;28;20056;-77
2021/12/28 11:24:10;;;;;;;6.88;4.75;;;9.60;51.50;;;;;;5040787;28;20061;-77
2021/12/28 11:26:49;;;;;;;7.93;4.70;;;9.60;51.50;;;;;;5037904;28;20119;-77
2021/12/28 11:29:22;;;;;;;5.80;4.32;;;9.60;51.50;;;;;;5035169;28;20083;-77
2021/12/28 11:32:01;;;;;;;6.50;4.22;;;9.60;51.50;;;;;;5034506;28;20056;-78
2021/12/28 11:34:35;;;;;;;6.57;4.30;;;9.60;51.50;;;;;;5034024;28;20092;-78
2021/12/28 11:37:20;;;;;;;5.68;4.00;;;9.60;51.60;;;;;;5036437;28;20412;-79
2021/12/28 11:39:52;;;;;;;6.65;4.10;;;9.60;51.60;;;;;;5049551;28;20045;-78
2021/12/28 11:42:19;;;;;;;6.35;4.13;;;9.60;51.50;;;;;;5033214;28;20033;-78
2021/12/28 11:44:45;;;;;;;6.22;4.25;;;9.60;51.60;;;;;;5033550;28;20041;-78
2021/12/28 11:47:14;;;;;;;6.13;4.30;;;9.60;51.50;;;;;;5032497;28;20036;-78
2021/12/28 11:49:41;;;;;;;6.20;3.83;;;9.60;51.50;;;;;;5033971;28;20030;-78
2021/12/28 11:52:10;;;;;;;5.63;3.72;;;9.60;51.50;;;;;;5030814;28;20030;-79
2021/12/28 11:54:43;;;;;;;6.50;4.00;;;9.60;51.50;;;;;;5031502;28;20183;-78
2021/12/28 11:57:13;;;;;;;5.93;4.05;;;9.60;51.50;;;;;;5045707;28;20197;-78
2021/12/28 11:59:40;;;;;;;5.43;4.22;;;9.60;51.50;;;;;;5032397;28;20475;-78
2021/12/28 12:02:11;;;;;;;5.47;3.92;;;9.60;51.50;;;;;;5034077;28;20026;-78
2021/12/28 12:04:50;;;;;;;5.65;3.67;;;9.60;51.50;;;;;;5030155;28;20689;-78
2021/12/28 12:07:16;;;;;;;5.38;3.70;;;9.60;51.50;;;;;;5031324;28;20794;-78
2021/12/28 12:09:52;;;;;;;5.63;3.70;;;9.60;51.50;;;;;;5032316;28;20030;-78
2021/12/28 12:12:30;;;;;;;6.07;4.05;;;9.60;51.50;;;;;;5033356;28;20117;-78
2021/12/28 12:15:01;;;;;;;6.40;3.35;;;9.60;51.50;;;;;;5031874;28;20029;-78
2021/12/28 12:17:39;;;;;;;6.63;3.95;;;9.60;51.40;;;;;;5046239;28;20029;-79
2021/12/28 12:20:08;;;;;;;5.97;3.88;;;9.60;51.50;;;;;;5030201;28;20037;-78
2021/12/28 12:22:52;;;;;;;6.60;4.00;;;9.60;51.50;;;;;;5033215;28;20033;-78
2021/12/28 12:25:30;;;;;;;6.15;3.80;;;9.60;51.50;;;;;;5033347;28;20038;-78
2021/12/28 12:28:02;;;;;;;4.40;3.53;;;9.60;51.60;;;;;;5049101;28;20040;-78
2021/12/28 12:30:28;;;;;;;4.93;3.85;;;9.60;51.50;;;;;;5055621;28;20048;-78
2021/12/28 12:33:07;;;;;;;6.43;3.85;;;9.60;51.50;;;;;;5054845;28;20049;-78
2021/12/28 12:35:35;;;;;;;5.18;3.65;;;9.60;51.50;;;;;;5040653;28;20060;-77
2021/12/28 12:38:26;;;;;;;5.40;3.60;;;9.60;51.60;;;;;;5040917;28;20101;-78
2021/12/28 12:40:55;;;;;;;6.38;4.05;;;9.50;51.50;;;;;;5038958;28;20504;-78
2021/12/28 12:43:45;;;;;;;5.28;3.80;;;9.60;51.60;;;;;;5041380;28;20036;-78
2021/12/28 12:46:29;;;;;;;6.10;3.85;;;9.60;51.60;;;;;;5039653;28;20045;-78
2021/12/28 12:48:57;;;;;;;5.32;3.85;;;9.60;51.60;;;;;;5039061;28;20033;-78
2021/12/28 12:51:27;;;;;;;5.05;3.75;;;9.50;51.40;;;;;;5040706;28;20102;-78
2021/12/28 12:54:02;;;;;;;4.97;3.72;;;9.50;51.30;;;;;;5036946;28;20409;-78
2021/12/28 12:56:33;;;;;;;6.20;4.20;;;9.50;51.20;;;;;;5030061;28;20032;-78
2021/12/28 12:59:03;;;;;;;6.35;3.83;;;9.50;51.30;;;;;;5031156;28;20041;-78
2021/12/28 13:01:33;;;;;;;7.35;4.40;;;9.50;51.30;;;;;;5030664;28;20044;-78
2021/12/28 13:04:00;;;;;;;6.28;4.07;;;9.50;51.30;;;;;;5036542;28;20033;-78